Pauline Russ — CQIE7 — position and weather

sailwx.info

Track history (hours):
 
Tides and Currents Weather Stations Pressure Air Temp Water Temp Dewpoint Dewpoint Depression Visibility Wind Speed Wind Dir Waves Ship Positions

Pauline Russ

Last reported at 2018-May-13 18:33 UTC. Time now 2018-May-23 03:21 UTC.
Position N 39°01' E 009°27'.
Warning: this ship's position is 9 days out of date.

Length 155 m; draft 5.9 m.

Type: Cargo ship. MMSI: 255805939.

Date/timePositionNaut miles runAvg speedWind from/ knotsBaromVisibWave heightAir tempDewpointWater temp
2018-May-13 18:33N 39°01' E 009°27'216.5
2018-May-13 18:28N 39°02' E 009°25'816.2
2018-May-13 17:59N 39°06' E 009°17'816.3
2018-May-13 17:31N 39°10' E 009°08'3 6.2
2018-May-13 16:58N 39°13' E 009°06'0 0.0
2018-May-13 16:28N 39°13' E 009°06'0 0.0
2018-May-13 15:58N 39°13' E 009°06'0 0.0
2018-May-13 15:28N 39°13' E 009°06'0 0.0
2018-May-13 14:58N 39°13' E 009°06'0 0.0
2018-May-13 14:28N 39°13' E 009°06'0 0.0
2018-May-13 13:58N 39°13' E 009°06'0 0.0
2018-May-13 13:28N 39°13' E 009°06'0 0.0
2018-May-13 12:58N 39°13' E 009°06'0 0.0
2018-May-13 12:28N 39°13' E 009°06'0 0.0
2018-May-13 11:58N 39°13' E 009°06'0 0.0
2018-May-13 11:28N 39°13' E 009°06'0 0.0
2018-May-13 10:58N 39°13' E 009°06'0 0.0
2018-May-13 10:28N 39°13' E 009°06'0 0.0
2018-May-13 09:58N 39°13' E 009°06'0 0.0
2018-May-13 09:28N 39°13' E 009°06'0 0.0
2018-May-13 08:58N 39°13' E 009°06'0 0.0
2018-May-13 08:28N 39°13' E 009°06'0 0.0
2018-May-13 07:58N 39°13' E 009°06'1 1.3
2018-May-13 07:29N 39°12' E 009°07'510.7
2018-May-13 06:59N 39°08' E 009°11'815.7
2018-May-13 06:29N 39°04' E 009°20'815.6
2018-May-13 05:58N 38°60' E 009°29'1013.6
2018-May-13 05:15N 39°04' E 009°40'  
2018-May-10 00:48N 38°60' E 009°30'618.8
2018-May-10 00:30N 39°03' E 009°23'918.7
2018-May-10 00:00N 39°07' E 009°13'713.2
2018-May-09 23:30N 39°12' E 009°07'1 1.5
2018-May-09 23:00N 39°13' E 009°06'0 0.0
2018-May-09 22:30N 39°13' E 009°06'0 0.0
2018-May-09 22:00N 39°13' E 009°06'0 0.0
2018-May-09 21:30N 39°13' E 009°06'0 0.0
2018-May-09 21:00N 39°13' E 009°06'0 0.0
2018-May-09 20:30N 39°13' E 009°06'0 0.0
2018-May-09 20:00N 39°13' E 009°06'0 0.0
2018-May-09 19:30N 39°13' E 009°06'0 0.0
2018-May-09 19:00N 39°13' E 009°06'0 0.0
2018-May-09 18:30N 39°13' E 009°06'0 0.0
2018-May-09 18:00N 39°13' E 009°06'0 0.0
2018-May-09 17:30N 39°13' E 009°06'0 0.0
2018-May-09 17:00N 39°13' E 009°06'1 2.5
2018-May-09 16:30N 39°11' E 009°07'815.8
2018-May-09 16:00N 39°07' E 009°15'917.3
2018-May-09 15:30N 39°02' E 009°24'1314.2
2018-May-09 14:34N 39°05' E 009°41'  
2018-May-05 21:42N 38°60' E 009°29'315.6
2018-May-05 21:30N 39°01' E 009°26'815.5
2018-May-05 21:00N 39°05' E 009°17'815.4
2018-May-05 20:30N 39°09' E 009°09'4 7.4
2018-May-05 20:00N 39°13' E 009°06'0 0.0
2018-May-05 19:30N 39°13' E 009°06'0 0.0
2018-May-05 19:00N 39°13' E 009°06'0 0.0
2018-May-05 18:30N 39°13' E 009°06'0 0.0
2018-May-05 18:00N 39°13' E 009°06'0 0.0
2018-May-05 17:29N 39°13' E 009°06'0 0.8
2018-May-05 17:00N 39°12' E 009°07'5 9.4
2018-May-05 16:30N 39°09' E 009°11'510.0
2018-May-05 16:00N 39°06' E 009°16'815.5
2018-May-05 15:30N 39°02' E 009°25'  
Track history (hours):
 
Tides and Currents Weather Stations Pressure Air Temp Water Temp Dewpoint Dewpoint Depression Visibility Wind Speed Wind Dir Waves Ship Positions

Pauline Russ

Last reported at 2018-May-13 18:33 UTC. Time now 2018-May-23 03:21 UTC.
Position N 39°01' E 009°27'.
Warning: this ship's position is 9 days out of date.

Length 155 m; draft 5.9 m.

Type: Cargo ship. MMSI: 255805939.

Date/timePositionNaut miles runAvg speedWind from/ knotsBaromVisibWave heightAir tempDewpointWater temp
2018-May-13 18:33N 39°01' E 009°27'216.5
2018-May-13 18:28N 39°02' E 009°25'816.2
2018-May-13 17:59N 39°06' E 009°17'816.3
2018-May-13 17:31N 39°10' E 009°08'3 6.2
2018-May-13 16:58N 39°13' E 009°06'0 0.0
2018-May-13 16:28N 39°13' E 009°06'0 0.0
2018-May-13 15:58N 39°13' E 009°06'0 0.0
2018-May-13 15:28N 39°13' E 009°06'0 0.0
2018-May-13 14:58N 39°13' E 009°06'0 0.0
2018-May-13 14:28N 39°13' E 009°06'0 0.0
2018-May-13 13:58N 39°13' E 009°06'0 0.0
2018-May-13 13:28N 39°13' E 009°06'0 0.0
2018-May-13 12:58N 39°13' E 009°06'0 0.0
2018-May-13 12:28N 39°13' E 009°06'0 0.0
2018-May-13 11:58N 39°13' E 009°06'0 0.0
2018-May-13 11:28N 39°13' E 009°06'0 0.0
2018-May-13 10:58N 39°13' E 009°06'0 0.0
2018-May-13 10:28N 39°13' E 009°06'0 0.0
2018-May-13 09:58N 39°13' E 009°06'0 0.0
2018-May-13 09:28N 39°13' E 009°06'0 0.0
2018-May-13 08:58N 39°13' E 009°06'0 0.0
2018-May-13 08:28N 39°13' E 009°06'0 0.0
2018-May-13 07:58N 39°13' E 009°06'1 1.3
2018-May-13 07:29N 39°12' E 009°07'510.7
2018-May-13 06:59N 39°08' E 009°11'815.7
2018-May-13 06:29N 39°04' E 009°20'815.6
2018-May-13 05:58N 38°60' E 009°29'1013.6
2018-May-13 05:15N 39°04' E 009°40'  
2018-May-10 00:48N 38°60' E 009°30'618.8
2018-May-10 00:30N 39°03' E 009°23'918.7
2018-May-10 00:00N 39°07' E 009°13'713.2
2018-May-09 23:30N 39°12' E 009°07'1 1.5
2018-May-09 23:00N 39°13' E 009°06'0 0.0
2018-May-09 22:30N 39°13' E 009°06'0 0.0
2018-May-09 22:00N 39°13' E 009°06'0 0.0
2018-May-09 21:30N 39°13' E 009°06'0 0.0
2018-May-09 21:00N 39°13' E 009°06'0 0.0
2018-May-09 20:30N 39°13' E 009°06'0 0.0
2018-May-09 20:00N 39°13' E 009°06'0 0.0
2018-May-09 19:30N 39°13' E 009°06'0 0.0
2018-May-09 19:00N 39°13' E 009°06'0 0.0
2018-May-09 18:30N 39°13' E 009°06'0 0.0
2018-May-09 18:00N 39°13' E 009°06'0 0.0
2018-May-09 17:30N 39°13' E 009°06'0 0.0
2018-May-09 17:00N 39°13' E 009°06'1 2.5
2018-May-09 16:30N 39°11' E 009°07'815.8
2018-May-09 16:00N 39°07' E 009°15'917.3
2018-May-09 15:30N 39°02' E 009°24'1314.2
2018-May-09 14:34N 39°05' E 009°41'  
2018-May-05 21:42N 38°60' E 009°29'315.6
2018-May-05 21:30N 39°01' E 009°26'815.5
2018-May-05 21:00N 39°05' E 009°17'815.4
2018-May-05 20:30N 39°09' E 009°09'4 7.4
2018-May-05 20:00N 39°13' E 009°06'0 0.0
2018-May-05 19:30N 39°13' E 009°06'0 0.0
2018-May-05 19:00N 39°13' E 009°06'0 0.0
2018-May-05 18:30N 39°13' E 009°06'0 0.0
2018-May-05 18:00N 39°13' E 009°06'0 0.0
2018-May-05 17:29N 39°13' E 009°06'0 0.8
2018-May-05 17:00N 39°12' E 009°07'5 9.4
2018-May-05 16:30N 39°09' E 009°11'510.0
2018-May-05 16:00N 39°06' E 009°16'815.5
2018-May-05 15:30N 39°02' E 009°25'  

Dump ship's entire track history